^^
Station Historical Data
Daily Summary for December 8, 2017 Units:  English    Metric   Both
« Previous Day
Next Day »
Daily Weekly Monthly Yearly Custom
  High: Low: Average:
Temperature: 33.4 °F 27.7 °F 31.1 °F
Dew Point: 27.0 °F 18.0 °F 20.3 °F
Humidity: 80 % 57 % 64 %
Wind Speed: 5.4 mph 0.0 mph 0.3 mph
Wind Gust: 11.5 mph - -
Wind:- - WSW
Pressure: 30.13 in 29.99 in -
Precipitation: 0.00 in    
Historical Graphs
 
 
Tabular Data for December 8, 2017
Time Temperature Dew Point Pressure Wind Wind Speed Wind Gust Humidity Rainfall Rate (Hourly) solar Conditions
00:08 33.4 °F 27.0 °F 30.05 in Calm     77 % 0.00 in 0.0 W/m2 BKN
00:15 32.9 °F 26.8 °F 30.06 in Calm     78 % 0.00 in 0.0 W/m2 BKN
00:19 32.9 °F 26.8 °F 30.06 in Calm     78 % 0.00 in 0.0 W/m2 BKN
00:24 33.1 °F 27.0 °F 30.06 in Calm     78 % 0.00 in 0.0 W/m2 BKN
00:29 33.0 °F 26.6 °F 30.05 in Calm     77 % 0.00 in 0.0 W/m2 BKN
00:39 32.8 °F 26.4 °F 30.06 in Calm     77 % 0.00 in 0.0 W/m2 BKN
00:49 32.3 °F 26.2 °F 30.06 in Calm     78 % 0.00 in 0.0 W/m2 BKN
00:54 32.1 °F 26.0 °F 30.06 in Calm     78 % 0.00 in 0.0 W/m2 BKN
00:59 32.0 °F 26.2 °F 30.06 in Calm     79 % 0.00 in 0.0 W/m2 BKN
01:09 32.0 °F 26.2 °F 30.06 in Calm     79 % 0.00 in 0.0 W/m2 FEW
01:14 32.1 °F 26.3 °F 30.05 in Calm   3.5 mph 79 % 0.00 in 0.0 W/m2 FEW
01:19 32.3 °F 26.2 °F 30.06 in Calm   3.5 mph 78 % 0.00 in 0.0 W/m2 FEW
01:29 32.8 °F 26.1 °F 30.07 in Calm   1.2 mph 76 % 0.00 in 0.0 W/m2 FEW
01:39 32.3 °F 25.3 °F 30.07 in Calm     75 % 0.00 in 0.0 W/m2 FEW
01:54 31.7 °F 25.3 °F 30.07 in Calm     77 % 0.00 in 0.0 W/m2 FEW
01:59 31.3 °F 25.2 °F 30.08 in Calm     78 % 0.00 in 0.0 W/m2 FEW
02:09 30.7 °F 25.0 °F 30.08 in Calm     79 % 0.00 in 0.0 W/m2 FEW
02:14 30.8 °F 25.1 °F 30.07 in Calm     79 % 0.00 in 0.0 W/m2 FEW
02:19 30.7 °F 25.0 °F 30.07 in Calm     79 % 0.00 in 0.0 W/m2 FEW
02:25 30.2 °F 24.8 °F 30.08 in Calm     80 % 0.00 in 0.0 W/m2 FEW
02:30 29.9 °F 24.5 °F 30.09 in Calm     80 % 0.00 in 0.0 W/m2 FEW
02:35 29.6 °F 24.2 °F 30.09 in Calm     80 % 0.00 in 0.0 W/m2 FEW
02:40 29.5 °F 24.1 °F 30.08 in Calm     80 % 0.00 in 0.0 W/m2 FEW
02:50 29.9 °F 24.5 °F 30.09 in Calm     80 % 0.00 in 0.0 W/m2 FEW
02:55 29.8 °F 24.1 °F 30.09 in Calm     79 % 0.00 in 0.0 W/m2 FEW
03:00 30.0 °F 23.7 °F 30.08 in WNW 1.0 mph 5.8 mph 77 % 0.00 in 0.0 W/m2 FEW
03:05 30.4 °F 22.8 °F 30.08 in West 0.5 mph 5.8 mph 73 % 0.00 in 0.0 W/m2 CLR
03:10 30.7 °F 22.1 °F 30.08 in Calm   4.6 mph 70 % 0.00 in 0.0 W/m2 CLR
03:15 30.9 °F 21.6 °F 30.08 in West 0.5 mph 6.9 mph 68 % 0.00 in 0.0 W/m2 CLR
03:25 30.9 °F 20.1 °F 30.08 in Calm   6.0 mph 64 % 0.00 in 0.0 W/m2 CLR
03:30 30.8 °F 20.0 °F 30.09 in Calm   10.4 mph 64 % 0.00 in 0.0 W/m2 CLR
03:35 30.6 °F 19.5 °F 30.09 in Calm   3.5 mph 63 % 0.00 in 0.0 W/m2 CLR
03:40 30.2 °F 19.5 °F 30.09 in West 0.1 mph 3.5 mph 64 % 0.00 in 0.0 W/m2 CLR
03:45 30.0 °F 19.3 °F 30.09 in West 0.3 mph 3.5 mph 64 % 0.00 in 0.0 W/m2 CLR
03:50 29.7 °F 19.4 °F 30.09 in Calm   1.2 mph 65 % 0.00 in 0.0 W/m2 CLR
03:55 29.7 °F 19.4 °F 30.09 in Calm   1.2 mph 65 % 0.00 in 0.0 W/m2 CLR
04:00 29.8 °F 19.1 °F 30.09 in Calm   3.5 mph 64 % 0.00 in 0.0 W/m2 CLR
04:05 29.7 °F 19.4 °F 30.09 in Calm   3.5 mph 65 % 0.00 in 0.0 W/m2 CLR
04:10 29.7 °F 19.4 °F 30.10 in Calm     65 % 0.00 in 0.0 W/m2 CLR
04:15 29.7 °F 19.7 °F 30.10 in Calm     66 % 0.00 in 0.0 W/m2 CLR
04:20 29.4 °F 19.8 °F 30.09 in Calm     67 % 0.00 in 0.0 W/m2 CLR
04:25 29.2 °F 19.9 °F 30.09 in Calm     68 % 0.00 in 0.0 W/m2 CLR
04:30 29.0 °F 19.8 °F 30.09 in Calm     68 % 0.00 in 0.0 W/m2 CLR
04:35 29.0 °F 20.1 °F 30.09 in Calm     69 % 0.00 in 0.0 W/m2 CLR
04:40 29.0 °F 20.1 °F 30.09 in Calm     69 % 0.00 in 0.0 W/m2 CLR
04:45 29.0 °F 20.1 °F 30.09 in Calm     69 % 0.00 in 0.0 W/m2 CLR
04:50 29.3 °F 19.7 °F 30.09 in Calm     67 % 0.00 in 0.0 W/m2 CLR
04:55 29.4 °F 19.4 °F 30.09 in WNW 0.9 mph 2.3 mph 66 % 0.00 in 0.0 W/m2 CLR
05:00 29.3 °F 19.0 °F 30.09 in WNW 0.6 mph 3.5 mph 65 % 0.00 in 0.0 W/m2 CLR
05:05 29.4 °F 19.1 °F 30.10 in Calm   3.5 mph 65 % 0.00 in 0.0 W/m2 CLR
05:10 29.5 °F 18.8 °F 30.10 in Calm   3.5 mph 64 % 0.00 in 0.0 W/m2 CLR
05:15 29.5 °F 18.4 °F 30.10 in Calm     63 % 0.00 in 0.0 W/m2 CLR
05:20 29.4 °F 18.3 °F 30.09 in Calm     63 % 0.00 in 0.0 W/m2 CLR
05:26 29.4 °F 18.3 °F 30.09 in Calm     63 % 0.00 in 0.0 W/m2 CLR
05:41 29.0 °F 18.3 °F 30.09 in Calm   2.3 mph 64 % 0.00 in 0.0 W/m2 CLR
05:46 28.8 °F 18.5 °F 30.09 in Calm     65 % 0.00 in 0.0 W/m2 CLR
05:51 28.7 °F 18.4 °F 30.09 in Calm     65 % 0.00 in 0.0 W/m2 CLR
06:06 28.1 °F 18.5 °F 30.09 in Calm     67 % 0.00 in 0.0 W/m2 CLR
06:16 27.9 °F 18.7 °F 30.09 in Calm     68 % 0.00 in 0.0 W/m2 CLR
06:21 27.8 °F 18.6 °F 30.09 in Calm     68 % 0.00 in 0.0 W/m2 CLR
06:26 27.7 °F 18.5 °F 30.09 in Calm     68 % 0.00 in 0.0 W/m2 CLR
06:31 27.9 °F 18.7 °F 30.09 in Calm     68 % 0.00 in 0.0 W/m2 CLR
06:36 28.0 °F 18.8 °F 30.10 in Calm     68 % 0.00 in 0.0 W/m2 CLR
06:41 28.0 °F 18.8 °F 30.10 in Calm     68 % 0.00 in 0.0 W/m2 CLR
06:46 27.9 °F 18.7 °F 30.10 in Calm     68 % 0.00 in 0.0 W/m2 CLR
06:51 28.1 °F 18.5 °F 30.10 in Calm     67 % 0.00 in 0.0 W/m2 CLR
06:56 28.0 °F 18.5 °F 30.10 in Calm     67 % 0.00 in 0.0 W/m2 CLR
07:06 27.8 °F 18.6 °F 30.10 in Calm     68 % 0.00 in 0.0 W/m2 CLR
07:26 28.0 °F 19.1 °F 30.10 in Calm     69 % 0.00 in 0.0 W/m2 CLR
07:31 28.0 °F 19.1 °F 30.10 in Calm     69 % 0.00 in 5.0 W/m2 CLR
07:36 28.2 °F 19.0 °F 30.09 in Calm   8.1 mph 68 % 0.00 in 11.0 W/m2 CLR
07:41 28.7 °F 18.8 °F 30.09 in Calm   8.1 mph 66 % 0.00 in 18.0 W/m2 CLR
07:46 28.9 °F 18.6 °F 30.10 in West 5.4 mph 9.2 mph 65 % 0.00 in 25.0 W/m2 CLR
07:51 29.1 °F 18.4 °F 30.11 in WNW 0.1 mph 9.2 mph 64 % 0.00 in 37.0 W/m2 CLR
07:56 29.2 °F 18.5 °F 30.11 in Calm   9.2 mph 64 % 0.00 in 42.0 W/m2 CLR
08:01 29.3 °F 18.3 °F 30.11 in Calm   6.9 mph 63 % 0.00 in 58.0 W/m2 CLR
08:06 29.5 °F 18.4 °F 30.12 in Calm   8.1 mph 63 % 0.00 in 35.0 W/m2 CLR
08:11 29.6 °F 18.5 °F 30.11 in Calm   8.1 mph 63 % 0.00 in 54.0 W/m2 CLR
08:17 29.6 °F 18.2 °F 30.11 in WNW 0.6 mph 3.5 mph 62 % 0.00 in 53.0 W/m2 CLR
08:27 29.6 °F 18.2 °F 30.11 in WNW 0.2 mph 6.9 mph 62 % 0.00 in 44.0 W/m2 CLR
08:32 29.7 °F 18.3 °F 30.12 in Calm   6.9 mph 62 % 0.00 in 56.0 W/m2 CLR
08:37 29.7 °F 18.3 °F 30.12 in WNW 1.1 mph 6.9 mph 62 % 0.00 in 63.0 W/m2 CLR
08:47 29.8 °F 18.4 °F 30.12 in Calm   8.1 mph 62 % 0.00 in 65.0 W/m2 CLR
08:52 29.9 °F 18.5 °F 30.11 in Calm   1.2 mph 62 % 0.00 in 77.0 W/m2 CLR
08:57 29.8 °F 18.4 °F 30.10 in Calm   1.2 mph 62 % 0.00 in 67.0 W/m2 CLR
09:02 29.8 °F 18.0 °F 30.12 in Calm     61 % 0.00 in 58.0 W/m2 CLR
09:07 29.9 °F 18.1 °F 30.12 in Calm   1.2 mph 61 % 0.00 in 77.0 W/m2 CLR
09:17 30.1 °F 18.6 °F 30.12 in WNW 0.1 mph 1.2 mph 62 % 0.00 in 90.0 W/m2 CLR
09:22 30.4 °F 18.9 °F 30.12 in NW 0.6 mph 3.5 mph 62 % 0.00 in 83.0 W/m2 CLR
09:28 30.2 °F 18.7 °F 30.13 in Calm   3.5 mph 62 % 0.00 in 142.0 W/m2 CLR
09:33 30.4 °F 18.9 °F 30.12 in NW 0.4 mph 3.5 mph 62 % 0.00 in 174.0 W/m2 CLR
09:38 30.9 °F 19.0 °F 30.12 in NW 0.8 mph 8.1 mph 61 % 0.00 in 195.0 W/m2 CLR
09:48 30.9 °F 18.6 °F 30.13 in Calm   8.1 mph 60 % 0.00 in 192.0 W/m2 CLR
09:53 31.0 °F 18.7 °F 30.13 in Calm   3.5 mph 60 % 0.00 in 192.0 W/m2 CLR
09:58 31.2 °F 18.9 °F 30.13 in Calm   8.1 mph 60 % 0.00 in 160.0 W/m2 CLR
10:03 31.3 °F 18.6 °F 30.13 in West 1.1 mph 8.1 mph 59 % 0.00 in 134.0 W/m2 CLR
10:08 31.3 °F 18.6 °F 30.12 in Calm   8.1 mph 59 % 0.00 in 114.0 W/m2 CLR
10:13 31.2 °F 18.5 °F 30.13 in Calm   5.8 mph 59 % 0.00 in 107.0 W/m2 CLR
10:18 31.0 °F 18.3 °F 30.13 in SW 1.2 mph 5.8 mph 59 % 0.00 in 98.0 W/m2 CLR
10:29 30.9 °F 18.6 °F 30.13 in WSW 3.0 mph 8.1 mph 60 % 0.00 in 107.0 W/m2 CLR
10:34 31.0 °F 18.7 °F 30.13 in SW 2.0 mph 8.1 mph 60 % 0.00 in 107.0 W/m2 CLR
10:39 31.1 °F 18.8 °F 30.13 in Calm   8.1 mph 60 % 0.00 in 116.0 W/m2 CLR
10:44 31.1 °F 19.2 °F 30.11 in SW 0.8 mph 4.6 mph 61 % 0.00 in 141.0 W/m2 CLR
10:49 31.0 °F 19.1 °F 30.11 in Calm   3.5 mph 61 % 0.00 in 169.0 W/m2 CLR
10:54 31.1 °F 19.6 °F 30.11 in Calm   3.5 mph 62 % 0.00 in 176.0 W/m2 CLR
10:59 31.1 °F 19.2 °F 30.11 in SW 0.3 mph 4.6 mph 61 % 0.00 in 216.0 W/m2 CLR
11:04 31.4 °F 19.5 °F 30.10 in SSW 0.3 mph 4.6 mph 61 % 0.00 in 316.0 W/m2 CLR
11:09 31.5 °F 19.6 °F 30.10 in SW 0.5 mph 4.6 mph 61 % 0.00 in 396.0 W/m2 CLR
11:14 31.5 °F 19.2 °F 30.10 in SW 1.5 mph 5.8 mph 60 % 0.00 in 399.0 W/m2 CLR
11:19 31.6 °F 19.3 °F 30.10 in Calm   6.9 mph 60 % 0.00 in 288.0 W/m2 CLR
11:34 32.5 °F 20.1 °F 30.11 in West 0.3 mph 4.6 mph 60 % 0.00 in 257.0 W/m2 CLR
11:39 32.6 °F 20.2 °F 30.10 in Calm   6.9 mph 60 % 0.00 in 223.0 W/m2 CLR
11:44 32.4 °F 19.7 °F 30.10 in WSW 3.2 mph 8.1 mph 59 % 0.00 in 285.0 W/m2 CLR
11:49 32.3 °F 19.6 °F 30.11 in WSW 0.7 mph 8.1 mph 59 % 0.00 in 202.0 W/m2 CLR
11:54 32.5 °F 19.7 °F 30.10 in West 0.2 mph 8.1 mph 59 % 0.00 in 213.0 W/m2 CLR
12:14 32.4 °F 19.7 °F 30.08 in WSW 4.0 mph 8.1 mph 59 % 0.00 in 195.0 W/m2 CLR
12:19 32.2 °F 19.5 °F 30.09 in SW 1.9 mph 8.1 mph 59 % 0.00 in 221.0 W/m2 CLR
12:24 32.2 °F 19.5 °F 30.09 in WSW 2.3 mph 8.1 mph 59 % 0.00 in 192.0 W/m2 CLR
12:29 32.3 °F 19.6 °F 30.09 in WSW 0.5 mph 10.4 mph 59 % 0.00 in 179.0 W/m2 CLR
12:39 32.6 °F 19.8 °F 30.09 in WSW 1.4 mph 9.2 mph 59 % 0.00 in 155.0 W/m2 CLR
12:44 32.5 °F 19.3 °F 30.09 in SW 5.4 mph 11.5 mph 58 % 0.00 in 158.0 W/m2 CLR
12:49 32.3 °F 19.6 °F 30.08 in SW 0.6 mph 11.5 mph 59 % 0.00 in 179.0 W/m2 CLR
12:54 32.4 °F 19.7 °F 30.08 in WSW 3.5 mph 9.2 mph 59 % 0.00 in 160.0 W/m2 CLR
12:59 32.5 °F 19.7 °F 30.08 in WSW 0.2 mph 6.9 mph 59 % 0.00 in 160.0 W/m2 CLR
13:09 32.7 °F 19.5 °F 30.08 in WSW 0.1 mph 4.6 mph 58 % 0.00 in 135.0 W/m2 CLR
13:14 32.6 °F 19.4 °F 30.08 in WSW 1.7 mph 6.9 mph 58 % 0.00 in 132.0 W/m2 CLR
13:19 32.6 °F 19.4 °F 30.07 in WSW 1.3 mph 9.2 mph 58 % 0.00 in 135.0 W/m2 CLR
13:24 32.7 °F 19.9 °F 30.07 in Calm   9.2 mph 59 % 0.00 in 123.0 W/m2 CLR
13:29 32.8 °F 20.0 °F 30.07 in Calm   6.9 mph 59 % 0.00 in 135.0 W/m2 CLR
13:34 32.8 °F 20.0 °F 30.07 in WSW 2.7 mph 6.9 mph 59 % 0.00 in 135.0 W/m2 CLR
13:35 32.8 °F 20.0 °F 30.07 in SW 4.8 mph 6.9 mph 59 % 0.00 in 135.0 W/m2 CLR
13:40 32.7 °F 19.9 °F 30.06 in Calm   8.1 mph 59 % 0.00 in 127.0 W/m2 CLR
13:45 32.8 °F 20.0 °F 30.06 in WSW 0.7 mph 8.1 mph 59 % 0.00 in 127.0 W/m2 CLR
13:50 32.7 °F 19.6 °F 30.05 in Calm   8.0 mph 58 % 0.00 in 123.0 W/m2 CLR
13:55 32.7 °F 19.9 °F 30.05 in SW 1.0 mph 4.0 mph 59 % 0.00 in 120.0 W/m2 CLR
14:00 32.6 °F 19.4 °F 30.05 in SSW 0.1 mph 4.6 mph 58 % 0.00 in 116.0 W/m2 CLR
14:10 32.7 °F 19.9 °F 30.05 in SW 0.3 mph 8.1 mph 59 % 0.00 in 91.0 W/m2 CLR
14:15 32.8 °F 20.0 °F 30.06 in WSW 0.5 mph 8.1 mph 59 % 0.00 in 95.0 W/m2 CLR
14:20 32.8 °F 19.6 °F 30.05 in SSW 0.4 mph 5.8 mph 58 % 0.00 in 93.0 W/m2 CLR
14:25 32.8 °F 19.7 °F 30.05 in WSW 1.0 mph 9.0 mph 58 % 0.00 in 97.0 W/m2 CLR
14:30 33.0 °F 19.8 °F 30.06 in Calm   9.2 mph 58 % 0.00 in 95.0 W/m2 CLR
14:40 33.2 °F 20.0 °F 30.06 in Calm   4.0 mph 58 % 0.00 in 93.0 W/m2 CLR
14:50 33.1 °F 19.5 °F 30.05 in SSW 0.4 mph 5.8 mph 57 % 0.00 in 67.0 W/m2 CLR
15:00 33.2 °F 20.0 °F 30.05 in Calm   8.1 mph 58 % 0.00 in 77.0 W/m2 CLR
15:10 33.2 °F 19.6 °F 30.06 in SW 1.3 mph 9.2 mph 57 % 0.00 in 49.0 W/m2 CLR
15:15 33.2 °F 20.0 °F 30.06 in Calm   6.9 mph 58 % 0.00 in 42.0 W/m2 CLR
15:20 33.2 °F 20.0 °F 30.06 in WSW 1.0 mph 6.9 mph 58 % 0.00 in 37.0 W/m2 CLR
15:25 33.2 °F 20.0 °F 30.06 in WSW 0.1 mph 6.9 mph 58 % 0.00 in 35.0 W/m2 CLR
15:30 33.2 °F 20.0 °F 30.06 in WSW 0.2 mph 9.2 mph 58 % 0.00 in 26.0 W/m2 CLR
15:35 33.1 °F 19.9 °F 30.06 in West 0.3 mph 9.2 mph 58 % 0.00 in 21.0 W/m2 CLR
15:40 33.1 °F 19.9 °F 30.05 in WSW 0.1 mph 8.1 mph 58 % 0.00 in 21.0 W/m2 CLR
15:45 33.0 °F 19.8 °F 30.05 in West 0.1 mph 8.1 mph 58 % 0.00 in 21.0 W/m2 CLR
15:55 33.0 °F 19.8 °F 30.05 in West 1.1 mph 5.8 mph 58 % 0.00 in 16.0 W/m2 CLR
16:00 33.1 °F 20.3 °F 30.05 in West 0.2 mph 5.8 mph 59 % 0.00 in 12.0 W/m2 CLR
16:05 33.0 °F 19.8 °F 30.05 in Calm   8.1 mph 58 % 0.00 in 12.0 W/m2 CLR
16:15 32.9 °F 19.7 °F 30.05 in Calm     58 % 0.00 in 5.0 W/m2 CLR
16:40 32.7 °F 19.9 °F 30.05 in Calm     59 % 0.00 in 0.0 W/m2 CLR
16:46 32.7 °F 20.3 °F 30.06 in Calm     60 % 0.00 in 0.0 W/m2 CLR
16:51 32.7 °F 20.3 °F 30.06 in Calm     60 % 0.00 in 0.0 W/m2 CLR
16:56 32.7 °F 20.3 °F 30.06 in Calm     60 % 0.00 in 0.0 W/m2 CLR
17:01 32.6 °F 20.2 °F 30.06 in Calm     60 % 0.00 in 0.0 W/m2 CLR
17:11 32.5 °F 20.1 °F 30.06 in Calm     60 % 0.00 in 0.0 W/m2 CLR
17:16 32.5 °F 20.1 °F 30.06 in Calm     60 % 0.00 in 0.0 W/m2 CLR
17:21 32.4 °F 20.0 °F 30.06 in Calm     60 % 0.00 in 0.0 W/m2 CLR
17:26 32.4 °F 20.4 °F 30.05 in Calm     61 % 0.00 in 0.0 W/m2 CLR
17:41 32.3 °F 19.6 °F 30.03 in Calm     59 % 0.00 in 0.0 W/m2 CLR
17:46 32.3 °F 19.6 °F 30.03 in Calm     59 % 0.00 in 0.0 W/m2 CLR
17:51 32.3 °F 19.6 °F 30.03 in Calm     59 % 0.00 in 0.0 W/m2 CLR
17:56 32.2 °F 19.5 °F 30.03 in Calm     59 % 0.00 in 0.0 W/m2 CLR
18:01 32.2 °F 19.5 °F 30.03 in Calm     59 % 0.00 in 0.0 W/m2 CLR
18:11 32.2 °F 19.5 °F 30.03 in Calm     59 % 0.00 in 0.0 W/m2 CLR
18:21 32.2 °F 19.1 °F 30.03 in Calm     58 % 0.00 in 0.0 W/m2 CLR
18:26 32.2 °F 19.1 °F 30.03 in Calm     58 % 0.00 in 0.0 W/m2 CLR
18:31 32.1 °F 19.4 °F 30.04 in Calm     59 % 0.00 in 0.0 W/m2 CLR
18:36 32.2 °F 19.9 °F 30.03 in Calm     60 % 0.00 in 0.0 W/m2 CLR
18:51 32.0 °F 19.7 °F 30.02 in Calm     60 % 0.00 in 0.0 W/m2 CLR
18:56 32.0 °F 19.7 °F 30.02 in Calm     60 % 0.00 in 0.0 W/m2 CLR
19:01 32.0 °F 19.7 °F 30.03 in Calm     60 % 0.00 in 0.0 W/m2 CLR
19:06 32.0 °F 19.7 °F 30.02 in Calm     60 % 0.00 in 0.0 W/m2 CLR
19:11 31.9 °F 19.6 °F 30.03 in Calm     60 % 0.00 in 0.0 W/m2 CLR
19:21 32.0 °F 19.7 °F 30.03 in Calm     60 % 0.00 in 0.0 W/m2 CLR
19:26 31.9 °F 20.0 °F 30.03 in Calm     61 % 0.00 in 0.0 W/m2 CLR
19:31 31.7 °F 19.8 °F 30.03 in Calm     61 % 0.00 in 0.0 W/m2 CLR
19:36 31.6 °F 19.7 °F 30.03 in Calm     61 % 0.00 in 0.0 W/m2 CLR
19:46 31.6 °F 19.7 °F 30.02 in Calm     61 % 0.00 in 0.0 W/m2 CLR
19:51 31.7 °F 19.4 °F 30.03 in Calm     60 % 0.00 in 0.0 W/m2 CLR
19:56 31.8 °F 19.9 °F 30.02 in Calm     61 % 0.00 in 0.0 W/m2 CLR
20:01 31.7 °F 19.4 °F 30.02 in Calm     60 % 0.00 in 0.0 W/m2 CLR
20:06 31.7 °F 19.8 °F 30.02 in Calm     61 % 0.00 in 0.0 W/m2 CLR
20:11 31.7 °F 19.8 °F 30.02 in Calm     61 % 0.00 in 0.0 W/m2 CLR
20:16 31.7 °F 19.8 °F 30.02 in Calm     61 % 0.00 in 0.0 W/m2 CLR
20:26 31.6 °F 20.1 °F 30.01 in Calm     62 % 0.00 in 0.0 W/m2 CLR
20:31 31.5 °F 20.3 °F 30.00 in Calm     63 % 0.00 in 0.0 W/m2 CLR
20:36 31.5 °F 20.3 °F 30.00 in Calm     63 % 0.00 in 0.0 W/m2 CLR
20:41 31.3 °F 20.5 °F 30.00 in Calm     64 % 0.00 in 0.0 W/m2 CLR
20:51 31.3 °F 20.9 °F 30.01 in Calm     65 % 0.00 in 0.0 W/m2 CLR
20:56 31.3 °F 20.9 °F 30.01 in Calm     65 % 0.00 in 0.0 W/m2 CLR
21:07 31.3 °F 20.9 °F 30.02 in Calm     65 % 0.00 in 0.0 W/m2 CLR
21:17 31.3 °F 20.9 °F 30.02 in Calm     65 % 0.00 in 0.0 W/m2 CLR
21:27 31.2 °F 20.8 °F 30.01 in Calm     65 % 0.00 in 0.0 W/m2 CLR
21:32 31.1 °F 20.3 °F 30.01 in Calm     64 % 0.00 in 0.0 W/m2 CLR
21:37 31.3 °F 20.5 °F 30.01 in Calm     64 % 0.00 in 0.0 W/m2 CLR
21:42 31.3 °F 20.9 °F 30.01 in Calm     65 % 0.00 in 0.0 W/m2 CLR
21:47 31.4 °F 21.0 °F 30.01 in Calm     65 % 0.00 in 0.0 W/m2 CLR
21:52 31.3 °F 20.9 °F 30.02 in Calm     65 % 0.00 in 0.0 W/m2 CLR
21:57 31.3 °F 20.9 °F 30.02 in Calm     65 % 0.00 in 0.0 W/m2 CLR
22:02 31.3 °F 20.9 °F 30.02 in Calm     65 % 0.00 in 0.0 W/m2 CLR
22:13 31.4 °F 21.0 °F 30.02 in Calm     65 % 0.00 in 0.0 W/m2 CLR
22:18 31.4 °F 21.0 °F 30.01 in Calm     65 % 0.00 in 0.0 W/m2 CLR
22:19 31.3 °F 20.9 °F 30.01 in Calm     65 % 0.00 in 0.0 W/m2 CLR
22:21 31.3 °F 20.9 °F 30.00 in Calm     65 % 0.00 in 0.0 W/m2 CLR
22:26 31.3 °F 20.9 °F 30.00 in Calm     65 % 0.00 in 0.0 W/m2 CLR
22:27 31.3 °F 20.9 °F 30.01 in Calm     65 % 0.00 in 0.0 W/m2 CLR
22:32 31.3 °F 20.9 °F 30.00 in Calm     65 % 0.00 in 0.0 W/m2 CLR
22:37 31.3 °F 20.9 °F 30.00 in Calm     65 % 0.00 in 0.0 W/m2 CLR
22:42 31.1 °F 20.3 °F 29.99 in Calm     64 % 0.00 in 0.0 W/m2 CLR
22:47 31.1 °F 20.7 °F 29.99 in Calm     65 % 0.00 in 0.0 W/m2 CLR
22:57 31.0 °F 21.0 °F 29.99 in Calm     66 % 0.00 in 0.0 W/m2 CLR
23:02 31.0 °F 20.6 °F 29.99 in Calm     65 % 0.00 in 0.0 W/m2 BKN
23:07 30.9 °F 20.9 °F 29.99 in Calm     66 % 0.00 in 0.0 W/m2 BKN
23:12 31.0 °F 21.0 °F 29.99 in Calm     66 % 0.00 in 0.0 W/m2 BKN
23:17 30.9 °F 20.9 °F 29.99 in Calm     66 % 0.00 in 0.0 W/m2 BKN
23:22 31.0 °F 21.0 °F 30.00 in Calm     66 % 0.00 in 0.0 W/m2 BKN
23:27 31.0 °F 21.3 °F 30.00 in Calm     67 % 0.00 in 0.0 W/m2 BKN
23:32 31.0 °F 21.3 °F 29.99 in Calm     67 % 0.00 in 0.0 W/m2 BKN
23:37 31.0 °F 21.0 °F 29.99 in Calm     66 % 0.00 in 0.0 W/m2 BKN
23:47 31.0 °F 20.6 °F 30.00 in Calm     65 % 0.00 in 0.0 W/m2 BKN
23:52 31.1 °F 20.7 °F 30.00 in Calm     65 % 0.00 in 0.0 W/m2 BKN
23:57 31.0 °F 20.6 °F 30.00 in Calm     65 % 0.00 in 0.0 W/m2 BKN
23:58 31.0 °F 20.6 °F 30.00 in Calm     65 % 0.00 in 0.0 W/m2 BKN
Air Products Campus Weather
Compliments of Weather Underground - 3 mb